Aviation Digital Data Service (ADDS)

Output produced by METARs form (1858 UTC 18 June 2019)
found at http://www.aviationweather.gov/metar/data/
 
EGYP 181750Z 01013KT 9999 FEW002 06/02 Q1005 BLU
TAF EGYP 181636Z 1818/1912 35012G22KT 9999 FEW005 520003 
     PROB40 
     TEMPO 1818/1822 35022G32KT 530003 
     PROB30 
     TEMPO 1818/1822 VRB07KT SCT005 560003 
     BECMG 1822/1824 29012KT 50//// 
     PROB40 
     TEMPO 1822/1903 SCT005 
     PROB30 
     TEMPO 1903/1912 SCT008